Lena — V2FR — position and weather

sailwx.info

Track history (hours):
 
Tides and Currents Weather Stations Pressure Air Temp Water Temp Dewpoint Dewpoint Depression Visibility Wind Speed Wind Dir Waves Ship Positions

Lena

Last reported at 2017-Feb-21 14:32 UTC. Time now 2017-Feb-21 23:23 UTC.
Position N 35°58' W 005°46'.

Length 152 m; draft 7.8 m.

Type: Ship. MMSI: 304080808.

Date/timePositionNaut miles runAvg speedWind from/ knotsBaromVisibWave heightAir tempDewpointWater temp
2017-Feb-21 14:32N 35°58' W 005°46'7 7.3
2017-Feb-21 13:33N 35°57' W 005°38'8 8.1
2017-Feb-21 12:34N 35°60' W 005°28'9 9.1
2017-Feb-21 11:34N 36°05' W 005°19'9 8.7
2017-Feb-21 10:33N 36°10' W 005°10'3 3.0
2017-Feb-21 09:33N 36°11' W 005°07'1 1.4
2017-Feb-21 08:33N 36°10' W 005°08'1 1.5
2017-Feb-21 07:34N 36°10' W 005°10'2 1.6
2017-Feb-21 06:33N 36°09' W 005°08'7 6.8
2017-Feb-21 05:33N 36°10' W 004°60'5 0.7
2017-Feb-20 22:11N 36°05' W 004°59'2 3.0
2017-Feb-20 21:33N 36°04' W 005°01'2 2.4
2017-Feb-20 20:34N 36°04' W 005°04'3 2.5
2017-Feb-20 19:30N 36°03' W 005°08'3 2.6
2017-Feb-20 18:30N 36°03' W 005°11'3 2.9
2017-Feb-20 17:33N 36°03' W 005°14'3 3.2
2017-Feb-20 16:33N 36°01' W 005°17'3 3.2
2017-Feb-20 15:34N 35°60' W 005°21'3 2.9
2017-Feb-20 14:33N 35°59' W 005°25'3 2.7
2017-Feb-20 13:34N 35°58' W 005°28'6 6.1
2017-Feb-20 12:33N 35°56' W 005°35'1010.0
2017-Feb-20 11:33N 35°53' W 005°46'56713.4
2017-Feb-18 17:19N 28°41' W 013°01'2613.7
2017-Feb-18 15:26N 28°21' W 013°19'1314.1
2017-Feb-18 14:30N 28°10' W 013°27'1514.0
2017-Feb-18 13:26N 27°57' W 013°37'1313.9
2017-Feb-18 12:31N 27°47' W 013°45'1414.1
2017-Feb-18 11:33N 27°35' W 013°53'2814.1
2017-Feb-18 09:34N 27°14' W 014°13'1414.3
2017-Feb-18 08:33N 27°03' W 014°23'  
Track history (hours):
 
Tides and Currents Weather Stations Pressure Air Temp Water Temp Dewpoint Dewpoint Depression Visibility Wind Speed Wind Dir Waves Ship Positions

Lena

Last reported at 2017-Feb-21 14:32 UTC. Time now 2017-Feb-21 23:23 UTC.
Position N 35°58' W 005°46'.

Length 152 m; draft 7.8 m.

Type: Ship. MMSI: 304080808.

Date/timePositionNaut miles runAvg speedWind from/ knotsBaromVisibWave heightAir tempDewpointWater temp
2017-Feb-21 14:32N 35°58' W 005°46'7 7.3
2017-Feb-21 13:33N 35°57' W 005°38'8 8.1
2017-Feb-21 12:34N 35°60' W 005°28'9 9.1
2017-Feb-21 11:34N 36°05' W 005°19'9 8.7
2017-Feb-21 10:33N 36°10' W 005°10'3 3.0
2017-Feb-21 09:33N 36°11' W 005°07'1 1.4
2017-Feb-21 08:33N 36°10' W 005°08'1 1.5
2017-Feb-21 07:34N 36°10' W 005°10'2 1.6
2017-Feb-21 06:33N 36°09' W 005°08'7 6.8
2017-Feb-21 05:33N 36°10' W 004°60'5 0.7
2017-Feb-20 22:11N 36°05' W 004°59'2 3.0
2017-Feb-20 21:33N 36°04' W 005°01'2 2.4
2017-Feb-20 20:34N 36°04' W 005°04'3 2.5
2017-Feb-20 19:30N 36°03' W 005°08'3 2.6
2017-Feb-20 18:30N 36°03' W 005°11'3 2.9
2017-Feb-20 17:33N 36°03' W 005°14'3 3.2
2017-Feb-20 16:33N 36°01' W 005°17'3 3.2
2017-Feb-20 15:34N 35°60' W 005°21'3 2.9
2017-Feb-20 14:33N 35°59' W 005°25'3 2.7
2017-Feb-20 13:34N 35°58' W 005°28'6 6.1
2017-Feb-20 12:33N 35°56' W 005°35'1010.0
2017-Feb-20 11:33N 35°53' W 005°46'56713.4
2017-Feb-18 17:19N 28°41' W 013°01'2613.7
2017-Feb-18 15:26N 28°21' W 013°19'1314.1
2017-Feb-18 14:30N 28°10' W 013°27'1514.0
2017-Feb-18 13:26N 27°57' W 013°37'1313.9
2017-Feb-18 12:31N 27°47' W 013°45'1414.1
2017-Feb-18 11:33N 27°35' W 013°53'2814.1
2017-Feb-18 09:34N 27°14' W 014°13'1414.3
2017-Feb-18 08:33N 27°03' W 014°23'  

Dump ship's entire track history